Time;durP1;ratioP1;P1;durP2;ratioP2;P2;SDS_P1;SDS_P2;PMS_P1;PMS_P2;Temp;Humidity;BMP_temperature;BMP_pressure;BME280_temperature;BME280_humidity;BME280_pressure;Samples;Min_cycle;Max_cycle;Signal;HPM_P1;HPM_P2
2021/11/24 00:00:48;;;;;;;96.35;48.20;;;;;;;;;;2087174;28;20175;-62
2021/11/24 00:01:48;;;;;;;98.47;49.90;;;;;;;;;;2089581;28;20172;-63
2021/11/24 00:02:49;;;;;;;87.90;47.75;;;;;;;;;;2090418;28;20757;-63
2021/11/24 00:03:50;;;;;;;88.35;46.80;;;;;;;;;;2090009;28;20195;-61
2021/11/24 00:04:50;;;;;;;92.78;48.70;;;;;;;;;;2083292;28;20184;-64
2021/11/24 00:05:50;;;;;;;89.90;47.63;;;;;;;;;;2083842;28;20171;-64
2021/11/24 00:06:51;;;;;;;86.18;46.25;;;;;;;;;;2090331;28;20270;-64
2021/11/24 00:07:51;;;;;;;94.18;46.03;;;;;;;;;;2083546;28;20312;-63
2021/11/24 00:08:51;;;;;;;89.47;46.83;;;;;;;;;;2088720;28;20183;-64
2021/11/24 00:09:52;;;;;;;88.47;47.57;;;;;;;;;;2089438;28;20250;-65
2021/11/24 00:10:52;;;;;;;89.83;47.57;;;;;;;;;;2082139;28;20210;-63
2021/11/24 00:11:52;;;;;;;85.27;47.47;;;;;;;;;;2084796;28;20184;-61
2021/11/24 00:12:53;;;;;;;88.20;47.23;;;;;;;;;;2086912;28;20167;-65
2021/11/24 00:13:55;;;;;;;91.07;46.47;;;;;;;;;;2082405;23;21029;-57
2021/11/24 00:14:55;;;;;;;91.88;46.17;;;;;;;;;;2056295;28;20242;-55
2021/11/24 00:15:56;;;;;;;91.45;45.78;;;;;;;;;;2065344;28;20265;-54
2021/11/24 00:16:56;;;;;;;84.55;44.83;;;;;;;;;;2065339;28;20405;-54
2021/11/24 00:17:56;;;;;;;83.23;43.43;;;;;;;;;;2065397;28;20182;-56
2021/11/24 00:18:57;;;;;;;81.15;44.55;;;;;;;;;;2065062;28;20170;-55
2021/11/24 00:19:57;;;;;;;77.87;46.43;;;;;;;;;;2065652;28;20331;-57
2021/11/24 00:20:57;;;;;;;85.13;44.90;;;;;;;;;;2066017;28;20264;-57
2021/11/24 00:21:58;;;;;;;81.53;42.97;;;;;;;;;;2066517;28;20190;-56
2021/11/24 00:22:58;;;;;;;81.07;43.88;;;;;;;;;;2065886;28;20193;-54
2021/11/24 00:23:58;;;;;;;69.38;42.72;;;;;;;;;;2065846;28;20185;-57
2021/11/24 00:24:59;;;;;;;77.72;42.60;;;;;;;;;;2066018;28;20187;-54
2021/11/24 00:25:59;;;;;;;74.05;41.95;;;;;;;;;;2065063;28;20217;-53
2021/11/24 00:26:59;;;;;;;73.55;41.67;;;;;;;;;;2065695;28;20193;-56
2021/11/24 00:28:00;;;;;;;77.22;42.30;;;;;;;;;;2065442;28;20236;-55
2021/11/24 00:29:00;;;;;;;79.03;41.83;;;;;;;;;;2065285;28;20169;-54
2021/11/24 00:30:01;;;;;;;71.90;38.78;;;;;;;;;;2065343;28;20170;-55
2021/11/24 00:31:01;;;;;;;76.32;43.50;;;;;;;;;;2064890;28;20223;-53
2021/11/24 00:32:01;;;;;;;75.63;42.38;;;;;;;;;;2072907;28;20177;-54
2021/11/24 00:33:02;;;;;;;80.95;41.85;;;;;;;;;;2072571;28;20177;-56
2021/11/24 00:34:02;;;;;;;71.03;40.90;;;;;;;;;;2065368;28;20248;-57
2021/11/24 00:35:05;;;;;;;80.00;42.57;;;;;;;;;;2065391;28;20178;-57
2021/11/24 00:36:05;;;;;;;74.72;43.75;;;;;;;;;;2065828;28;20169;-56
2021/11/24 00:37:06;;;;;;;74.75;42.22;;;;;;;;;;2065678;28;20181;-57
2021/11/24 00:38:06;;;;;;;71.55;39.97;;;;;;;;;;2065396;28;20176;-55
2021/11/24 00:39:06;;;;;;;73.77;43.23;;;;;;;;;;2065493;28;20179;-58
2021/11/24 00:40:07;;;;;;;69.40;40.47;;;;;;;;;;2064983;28;20261;-56
2021/11/24 00:41:07;;;;;;;73.80;39.67;;;;;;;;;;2064799;28;20596;-56
2021/11/24 00:42:07;;;;;;;69.38;41.00;;;;;;;;;;2065216;28;20594;-56
2021/11/24 00:43:08;;;;;;;69.50;39.42;;;;;;;;;;2064601;28;20261;-54
2021/11/24 00:44:08;;;;;;;69.53;38.53;;;;;;;;;;2065471;28;20185;-57
2021/11/24 00:45:09;;;;;;;68.03;39.30;;;;;;;;;;2064226;28;20174;-57
2021/11/24 00:46:09;;;;;;;75.35;39.70;;;;;;;;;;2065247;28;20185;-55
2021/11/24 00:47:09;;;;;;;74.95;39.75;;;;;;;;;;2065613;28;20173;-56
2021/11/24 00:48:11;;;;;;;72.10;40.72;;;;;;;;;;2064576;28;20225;-58
2021/11/24 00:49:11;;;;;;;66.78;38.53;;;;;;;;;;2064966;28;20598;-57
2021/11/24 00:50:11;;;;;;;69.63;39.30;;;;;;;;;;2064986;28;20562;-55
2021/11/24 00:51:12;;;;;;;67.05;39.53;;;;;;;;;;2072396;28;20247;-55
2021/11/24 00:52:12;;;;;;;68.05;39.53;;;;;;;;;;2072817;28;20311;-55
2021/11/24 00:53:13;;;;;;;68.65;38.38;;;;;;;;;;2065115;28;20278;-55
2021/11/24 00:54:13;;;;;;;64.15;38.28;;;;;;;;;;2065016;28;20194;-56
2021/11/24 00:55:13;;;;;;;68.30;39.05;;;;;;;;;;2057928;28;20181;-58
2021/11/24 00:56:14;;;;;;;68.87;39.83;;;;;;;;;;2064572;28;20169;-56
2021/11/24 00:57:14;;;;;;;66.43;38.17;;;;;;;;;;2065176;28;20174;-57
2021/11/24 00:58:14;;;;;;;68.53;39.37;;;;;;;;;;2065102;28;20174;-56
2021/11/24 00:59:14;;;;;;;67.90;38.60;;;;;;;;;;2065725;28;20218;-58
2021/11/24 01:00:16;;;;;;;64.07;37.80;;;;;;;;;;2065097;28;20223;-56
2021/11/24 01:01:17;;;;;;;68.93;38.63;;;;;;;;;;2064176;28;20248;-56
2021/11/24 01:02:17;;;;;;;66.85;38.85;;;;;;;;;;2061250;28;20201;-56
2021/11/24 01:03:18;;;;;;;67.47;40.35;;;;;;;;;;2064678;28;20169;-58
2021/11/24 01:04:18;;;;;;;61.30;38.45;;;;;;;;;;2064266;28;20198;-57
2021/11/24 01:05:19;;;;;;;67.55;40.10;;;;;;;;;;2065812;28;20173;-56
2021/11/24 01:06:19;;;;;;;68.63;38.47;;;;;;;;;;2064736;28;20181;-54
2021/11/24 01:07:19;;;;;;;66.65;36.55;;;;;;;;;;2065222;28;20185;-55
2021/11/24 01:08:20;;;;;;;60.35;38.60;;;;;;;;;;2064951;28;20224;-54
2021/11/24 01:09:20;;;;;;;68.57;38.90;;;;;;;;;;2064812;28;20174;-55
2021/11/24 01:10:20;;;;;;;62.80;36.90;;;;;;;;;;2064727;28;20165;-55
2021/11/24 01:11:20;;;;;;;66.40;40.03;;;;;;;;;;2065303;28;20174;-55
2021/11/24 01:12:21;;;;;;;67.13;38.88;;;;;;;;;;2065165;28;20651;-58
2021/11/24 01:13:21;;;;;;;64.43;39.13;;;;;;;;;;2064708;28;20549;-57
2021/11/24 01:14:22;;;;;;;64.20;37.65;;;;;;;;;;2065023;28;20247;-56
2021/11/24 01:15:22;;;;;;;63.13;40.15;;;;;;;;;;2064661;28;20186;-57
2021/11/24 01:16:22;;;;;;;63.05;37.63;;;;;;;;;;2064670;28;20204;-54
2021/11/24 01:17:23;;;;;;;67.10;39.20;;;;;;;;;;2064124;28;20243;-55
2021/11/24 01:18:23;;;;;;;65.00;36.75;;;;;;;;;;2064539;28;20256;-53
2021/11/24 01:19:23;;;;;;;61.88;37.90;;;;;;;;;;2065452;28;20170;-53
2021/11/24 01:20:24;;;;;;;60.28;36.50;;;;;;;;;;2065191;28;20217;-56
2021/11/24 01:21:24;;;;;;;55.63;36.25;;;;;;;;;;2065195;28;20181;-56
2021/11/24 01:22:25;;;;;;;58.60;35.92;;;;;;;;;;2063988;28;20189;-56
2021/11/24 01:23:25;;;;;;;57.80;36.40;;;;;;;;;;2064460;28;20205;-56
2021/11/24 01:24:25;;;;;;;55.88;35.00;;;;;;;;;;2064395;28;20182;-54
2021/11/24 01:25:26;;;;;;;54.35;33.58;;;;;;;;;;2064821;28;20638;-54
2021/11/24 01:26:27;;;;;;;52.22;34.03;;;;;;;;;;2064855;28;20234;-57
2021/11/24 01:27:27;;;;;;;54.15;33.55;;;;;;;;;;2065126;28;20223;-57
2021/11/24 01:28:27;;;;;;;54.88;32.75;;;;;;;;;;2064944;28;20172;-55
2021/11/24 01:29:28;;;;;;;51.08;33.20;;;;;;;;;;2064597;28;20186;-56
2021/11/24 01:30:28;;;;;;;52.75;33.75;;;;;;;;;;2065203;28;20217;-54
2021/11/24 01:31:29;;;;;;;50.63;32.90;;;;;;;;;;2064811;28;20186;-54
2021/11/24 01:32:29;;;;;;;51.35;32.92;;;;;;;;;;2064495;28;20213;-54
2021/11/24 01:33:29;;;;;;;51.95;33.50;;;;;;;;;;2064376;28;20198;-54
2021/11/24 01:34:30;;;;;;;50.05;32.67;;;;;;;;;;2064608;28;20186;-56
2021/11/24 01:35:30;;;;;;;53.85;34.45;;;;;;;;;;2065289;28;20181;-56
2021/11/24 01:36:31;;;;;;;57.17;35.05;;;;;;;;;;2064475;28;20189;-56
2021/11/24 01:37:31;;;;;;;49.25;32.05;;;;;;;;;;2064595;28;20244;-55
2021/11/24 01:38:32;;;;;;;51.25;34.03;;;;;;;;;;2065485;28;20182;-55
2021/11/24 01:39:32;;;;;;;53.33;33.75;;;;;;;;;;2064545;28;20170;-57
2021/11/24 01:40:32;;;;;;;51.20;33.80;;;;;;;;;;2065575;28;20638;-55
2021/11/24 01:41:33;;;;;;;49.10;31.45;;;;;;;;;;2064918;28;20181;-54
2021/11/24 01:42:33;;;;;;;52.50;33.55;;;;;;;;;;2064609;28;20607;-57
2021/11/24 01:43:34;;;;;;;51.35;34.00;;;;;;;;;;2064664;28;20219;-56
2021/11/24 01:44:34;;;;;;;52.00;33.63;;;;;;;;;;2063908;28;20186;-57
2021/11/24 01:45:35;;;;;;;53.55;33.63;;;;;;;;;;2064088;28;20170;-54
2021/11/24 01:46:35;;;;;;;46.13;32.53;;;;;;;;;;2064921;28;20186;-55
2021/11/24 01:47:35;;;;;;;52.15;32.80;;;;;;;;;;2065304;28;20215;-55
2021/11/24 01:48:36;;;;;;;57.42;34.80;;;;;;;;;;2064762;28;20184;-56
2021/11/24 01:49:36;;;;;;;50.85;33.65;;;;;;;;;;2064753;28;20185;-55
2021/11/24 01:50:37;;;;;;;51.55;33.47;;;;;;;;;;2064478;28;20178;-56
2021/11/24 01:51:37;;;;;;;56.60;34.17;;;;;;;;;;2063922;28;20174;-55
2021/11/24 01:52:37;;;;;;;55.63;32.95;;;;;;;;;;2063579;28;20177;-55
2021/11/24 01:53:38;;;;;;;54.17;33.38;;;;;;;;;;2065286;28;20243;-57
2021/11/24 01:54:38;;;;;;;50.80;33.58;;;;;;;;;;2065036;28;20197;-55
2021/11/24 01:55:38;;;;;;;55.28;33.45;;;;;;;;;;2064876;28;20650;-57
2021/11/24 01:56:39;;;;;;;53.47;33.92;;;;;;;;;;2064854;28;20300;-57
2021/11/24 01:57:41;;;;;;;54.67;33.83;;;;;;;;;;2069079;28;20619;-55
2021/11/24 01:58:41;;;;;;;52.13;34.22;;;;;;;;;;2064791;28;20231;-56
2021/11/24 01:59:42;;;;;;;59.03;34.10;;;;;;;;;;2064807;28;20244;-57
2021/11/24 02:00:43;;;;;;;54.75;33.60;;;;;;;;;;2064993;28;20259;-57
2021/11/24 02:01:44;;;;;;;52.88;34.65;;;;;;;;;;2072022;28;20723;-57
2021/11/24 02:02:44;;;;;;;48.85;32.75;;;;;;;;;;2071608;28;20192;-57
2021/11/24 02:03:45;;;;;;;48.97;31.20;;;;;;;;;;2063904;28;20570;-57
2021/11/24 02:04:45;;;;;;;53.42;34.70;;;;;;;;;;2065556;28;20162;-57
2021/11/24 02:05:45;;;;;;;52.22;33.38;;;;;;;;;;2065451;28;20181;-55
2021/11/24 02:06:46;;;;;;;49.65;32.88;;;;;;;;;;2059879;28;20654;-57
2021/11/24 02:07:47;;;;;;;54.83;34.72;;;;;;;;;;2069199;28;20650;-57
2021/11/24 02:08:47;;;;;;;55.08;34.72;;;;;;;;;;2072900;28;20219;-57
2021/11/24 02:09:47;;;;;;;53.63;36.10;;;;;;;;;;2065689;28;20166;-57
2021/11/24 02:10:48;;;;;;;57.05;35.38;;;;;;;;;;2065845;28;20648;-57
2021/11/24 02:11:48;;;;;;;53.78;34.92;;;;;;;;;;2073020;28;20261;-58
2021/11/24 02:12:49;;;;;;;61.85;35.75;;;;;;;;;;2073243;28;20200;-55
2021/11/24 02:13:49;;;;;;;58.78;36.13;;;;;;;;;;2062568;28;20206;-57
2021/11/24 02:14:50;;;;;;;62.40;37.42;;;;;;;;;;2066076;28;20177;-55
2021/11/24 02:15:50;;;;;;;54.22;34.22;;;;;;;;;;2065892;28;20192;-56
2021/11/24 02:16:51;;;;;;;56.95;34.92;;;;;;;;;;2065582;28;20181;-57
2021/11/24 02:17:52;;;;;;;59.00;35.93;;;;;;;;;;2065449;28;20292;-56
2021/11/24 02:18:52;;;;;;;60.47;37.20;;;;;;;;;;2064790;28;20178;-57
2021/11/24 02:19:52;;;;;;;62.47;37.67;;;;;;;;;;2061783;28;20581;-54
2021/11/24 02:20:53;;;;;;;61.22;36.75;;;;;;;;;;2064015;28;20174;-57
2021/11/24 02:21:54;;;;;;;58.80;36.88;;;;;;;;;;2064889;28;20173;-57
2021/11/24 02:22:54;;;;;;;64.97;38.70;;;;;;;;;;2058898;28;20549;-57
2021/11/24 02:23:54;;;;;;;60.70;38.47;;;;;;;;;;2059702;28;20241;-57
2021/11/24 02:24:55;;;;;;;60.10;36.40;;;;;;;;;;2058652;28;20200;-62
2021/11/24 02:25:55;;;;;;;58.55;36.70;;;;;;;;;;2063355;28;20367;-54
2021/11/24 02:26:56;;;;;;;66.82;36.58;;;;;;;;;;2061231;28;20217;-54
2021/11/24 02:27:57;;;;;;;59.75;37.03;;;;;;;;;;2064710;28;20193;-56
2021/11/24 02:28:57;;;;;;;62.80;38.00;;;;;;;;;;2072006;28;20235;-56
2021/11/24 02:29:57;;;;;;;57.88;35.72;;;;;;;;;;2072532;28;20229;-56
2021/11/24 02:30:57;;;;;;;63.15;37.58;;;;;;;;;;2065145;28;20664;-55
2021/11/24 02:31:59;;;;;;;62.47;38.40;;;;;;;;;;2064531;28;20654;-56
2021/11/24 02:32:59;;;;;;;62.97;37.15;;;;;;;;;;2064765;28;20225;-56
2021/11/24 02:34:00;;;;;;;63.15;36.55;;;;;;;;;;2064750;28;20198;-54
2021/11/24 02:35:00;;;;;;;65.50;37.97;;;;;;;;;;2072666;28;20179;-56
2021/11/24 02:36:00;;;;;;;62.17;37.20;;;;;;;;;;2071485;28;20211;-54
2021/11/24 02:37:01;;;;;;;59.75;36.88;;;;;;;;;;2065202;28;20252;-56
2021/11/24 02:38:03;;;;;;;62.05;36.38;;;;;;;;;;2064616;28;20626;-55
2021/11/24 02:39:03;;;;;;;63.35;38.33;;;;;;;;;;2064214;28;20713;-55
2021/11/24 02:40:04;;;;;;;69.03;38.00;;;;;;;;;;2059996;28;20257;-56
2021/11/24 02:41:04;;;;;;;75.20;37.47;;;;;;;;;;2063816;28;20268;-58
2021/11/24 02:42:05;;;;;;;66.68;38.53;;;;;;;;;;2064436;28;20248;-56
2021/11/24 02:43:05;;;;;;;63.45;37.15;;;;;;;;;;2064309;28;20177;-58
2021/11/24 02:44:24;;;;;;;67.57;39.17;;;;;;;;;;2063510;28;20194;-56
2021/11/24 02:45:25;;;;;;;77.17;39.77;;;;;;;;;;2062971;28;20204;-56
2021/11/24 02:46:25;;;;;;;73.10;40.40;;;;;;;;;;2063097;28;20232;-55
2021/11/24 02:47:25;;;;;;;76.30;40.13;;;;;;;;;;2064415;28;20203;-53
2021/11/24 02:48:26;;;;;;;78.07;43.22;;;;;;;;;;2063239;28;20217;-56
2021/11/24 02:49:26;;;;;;;71.88;40.28;;;;;;;;;;2067107;28;20229;-56
2021/11/24 02:50:27;;;;;;;84.37;42.33;;;;;;;;;;2066719;28;20661;-56
2021/11/24 02:51:27;;;;;;;80.20;42.97;;;;;;;;;;2066870;28;20210;-55
2021/11/24 02:52:28;;;;;;;87.15;43.42;;;;;;;;;;2064230;28;20208;-53
2021/11/24 02:53:29;;;;;;;76.80;40.80;;;;;;;;;;2061268;28;20212;-56
2021/11/24 02:54:29;;;;;;;88.63;46.30;;;;;;;;;;2066369;28;20201;-57
2021/11/24 02:55:30;;;;;;;90.00;42.77;;;;;;;;;;2066923;28;20189;-54
2021/11/24 02:56:30;;;;;;;88.45;44.95;;;;;;;;;;2066961;28;20647;-55
2021/11/24 02:57:38;;;;;;;86.00;44.65;;;;;;;;;;2067151;28;20215;-55
2021/11/24 02:58:38;;;;;;;80.88;43.28;;;;;;;;;;2066893;28;20992;-57
2021/11/24 02:59:39;;;;;;;85.63;46.47;;;;;;;;;;2067002;28;20189;-56
2021/11/24 03:00:39;;;;;;;91.30;46.35;;;;;;;;;;2067244;28;20211;-55
2021/11/24 03:01:40;;;;;;;94.85;46.92;;;;;;;;;;2067275;28;20201;-56
2021/11/24 03:02:41;;;;;;;85.88;43.83;;;;;;;;;;2066287;28;20232;-52
2021/11/24 03:03:41;;;;;;;90.45;43.58;;;;;;;;;;2066850;28;20193;-54
2021/11/24 03:04:41;;;;;;;95.57;45.45;;;;;;;;;;2066723;28;20177;-57
2021/11/24 03:05:41;;;;;;;83.35;44.08;;;;;;;;;;2067158;28;20268;-55
2021/11/24 03:06:42;;;;;;;93.22;47.10;;;;;;;;;;2066915;28;20260;-57
2021/11/24 03:07:42;;;;;;;87.00;44.20;;;;;;;;;;2067028;28;20649;-55
2021/11/24 03:08:43;;;;;;;86.13;44.25;;;;;;;;;;2067224;28;20205;-56
2021/11/24 03:09:45;;;;;;;84.13;44.88;;;;;;;;;;2066960;28;20594;-56
2021/11/24 03:10:46;;;;;;;95.55;47.50;;;;;;;;;;2067117;28;20177;-57
2021/11/24 03:11:46;;;;;;;94.37;45.57;;;;;;;;;;2066181;28;20181;-53
2021/11/24 03:12:46;;;;;;;82.32;42.92;;;;;;;;;;2065988;28;20204;-55
2021/11/24 03:13:47;;;;;;;84.03;43.67;;;;;;;;;;2071753;28;20227;-54
2021/11/24 03:14:47;;;;;;;85.35;44.75;;;;;;;;;;2069208;28;20587;-56
2021/11/24 03:15:47;;;;;;;85.43;43.13;;;;;;;;;;2075173;28;20204;-56
2021/11/24 03:16:48;;;;;;;80.43;41.63;;;;;;;;;;2077455;28;20673;-54
2021/11/24 03:17:48;;;;;;;80.60;42.00;;;;;;;;;;2074116;28;20208;-56
2021/11/24 03:18:49;;;;;;;83.18;42.55;;;;;;;;;;2074939;28;20747;-57
2021/11/24 03:19:49;;;;;;;81.53;40.97;;;;;;;;;;2065977;28;20173;-56
2021/11/24 03:20:50;;;;;;;83.28;43.47;;;;;;;;;;2067702;28;20178;-54
2021/11/24 03:21:50;;;;;;;85.80;43.42;;;;;;;;;;2066895;28;20174;-54
2021/11/24 03:22:51;;;;;;;76.43;41.83;;;;;;;;;;2066649;28;20284;-55
2021/11/24 03:23:51;;;;;;;72.45;41.95;;;;;;;;;;2067160;28;20289;-54
2021/11/24 03:24:55;;;;;;;69.18;38.92;;;;;;;;;;2067228;28;20212;-53
2021/11/24 03:25:56;;;;;;;78.68;40.45;;;;;;;;;;2067190;28;20166;-57
2021/11/24 03:26:56;;;;;;;72.78;41.10;;;;;;;;;;2066899;28;20565;-57
2021/11/24 03:27:56;;;;;;;71.13;40.05;;;;;;;;;;2059709;28;20256;-53
2021/11/24 03:28:57;;;;;;;77.50;40.42;;;;;;;;;;2065073;28;20173;-55
2021/11/24 03:29:58;;;;;;;73.30;39.28;;;;;;;;;;2066857;28;20426;-56
2021/11/24 03:30:58;;;;;;;71.45;38.63;;;;;;;;;;2066736;28;20182;-57
2021/11/24 03:31:58;;;;;;;72.38;38.65;;;;;;;;;;2067312;28;20182;-57
2021/11/24 03:33:00;;;;;;;63.08;37.22;;;;;;;;;;2065700;28;20681;-59
2021/11/24 03:34:00;;;;;;;68.03;37.92;;;;;;;;;;2066942;28;20316;-54
2021/11/24 03:35:01;;;;;;;72.70;38.92;;;;;;;;;;2067004;28;20180;-56
2021/11/24 03:36:02;;;;;;;70.30;38.72;;;;;;;;;;2067781;28;20650;-56
2021/11/24 03:37:02;;;;;;;65.38;36.55;;;;;;;;;;2067107;28;20209;-55
2021/11/24 03:38:03;;;;;;;64.78;37.40;;;;;;;;;;2067735;28;20197;-56
2021/11/24 03:39:04;;;;;;;66.57;37.13;;;;;;;;;;2067229;28;20189;-56
2021/11/24 03:40:06;;;;;;;63.92;36.42;;;;;;;;;;2063188;28;20190;-56
2021/11/24 03:41:06;;;;;;;62.35;36.53;;;;;;;;;;2066754;28;20713;-56
2021/11/24 03:42:06;;;;;;;70.20;36.75;;;;;;;;;;2074243;28;20188;-56
2021/11/24 03:43:07;;;;;;;61.92;36.17;;;;;;;;;;2066511;28;20182;-55
2021/11/24 03:44:07;;;;;;;67.22;38.15;;;;;;;;;;2067627;28;20197;-56
2021/11/24 03:45:07;;;;;;;63.70;36.53;;;;;;;;;;2067505;28;20236;-57
2021/11/24 03:46:08;;;;;;;65.95;37.45;;;;;;;;;;2067230;28;20637;-56
2021/11/24 03:47:08;;;;;;;58.50;35.30;;;;;;;;;;2067739;28;20196;-57
2021/11/24 03:48:09;;;;;;;63.20;36.63;;;;;;;;;;2068225;28;20213;-57
2021/11/24 03:49:09;;;;;;;65.50;37.22;;;;;;;;;;2068514;28;20169;-56
2021/11/24 03:50:10;;;;;;;65.55;36.55;;;;;;;;;;2067454;28;20181;-58
2021/11/24 03:51:10;;;;;;;59.58;36.47;;;;;;;;;;2067371;28;20196;-59
2021/11/24 03:52:11;;;;;;;64.30;37.30;;;;;;;;;;2064947;28;20298;-56
2021/11/24 03:53:11;;;;;;;61.83;37.63;;;;;;;;;;2059402;28;20542;-55
2021/11/24 03:54:11;;;;;;;64.82;36.03;;;;;;;;;;2069569;28;20200;-55
2021/11/24 03:55:12;;;;;;;69.78;38.13;;;;;;;;;;2069035;28;20595;-57
2021/11/24 03:56:13;;;;;;;62.47;35.83;;;;;;;;;;2068129;28;20192;-54
2021/11/24 03:57:14;;;;;;;72.55;39.90;;;;;;;;;;2067902;28;20558;-54
2021/11/24 03:58:14;;;;;;;67.07;38.47;;;;;;;;;;2075435;28;20220;-57
2021/11/24 03:59:14;;;;;;;68.75;38.70;;;;;;;;;;2076181;28;20168;-57
2021/11/24 04:00:19;;;;;;;67.78;37.63;;;;;;;;;;2068512;28;20188;-55
2021/11/24 04:01:19;;;;;;;66.50;37.08;;;;;;;;;;2066411;28;20221;-54
2021/11/24 04:02:20;;;;;;;69.13;38.10;;;;;;;;;;2067637;28;20181;-53
2021/11/24 04:03:20;;;;;;;63.03;35.85;;;;;;;;;;2067163;28;20174;-54
2021/11/24 04:04:20;;;;;;;64.43;37.00;;;;;;;;;;2069146;28;20205;-57
2021/11/24 04:05:21;;;;;;;67.30;37.08;;;;;;;;;;2068484;28;20633;-57
2021/11/24 04:06:21;;;;;;;68.68;36.97;;;;;;;;;;2067478;28;20261;-56
2021/11/24 04:07:21;;;;;;;63.42;34.72;;;;;;;;;;2067364;28;20178;-57
2021/11/24 04:08:22;;;;;;;63.92;36.47;;;;;;;;;;2067993;28;20295;-56
2021/11/24 04:09:22;;;;;;;60.08;36.60;;;;;;;;;;2067930;28;20177;-54
2021/11/24 04:10:22;;;;;;;65.45;37.15;;;;;;;;;;2069063;28;20181;-57
2021/11/24 04:11:23;;;;;;;60.65;35.08;;;;;;;;;;2068821;28;20181;-57
2021/11/24 04:12:23;;;;;;;59.88;35.88;;;;;;;;;;2076091;28;20177;-57
2021/11/24 04:13:23;;;;;;;61.45;35.42;;;;;;;;;;2076238;28;20180;-57
2021/11/24 04:14:23;;;;;;;68.13;36.53;;;;;;;;;;2067663;28;20197;-56
2021/11/24 04:15:24;;;;;;;62.28;37.22;;;;;;;;;;2066667;28;20343;-57
2021/11/24 04:16:25;;;;;;;62.28;35.60;;;;;;;;;;2066781;28;20189;-55
2021/11/24 04:17:25;;;;;;;65.43;35.78;;;;;;;;;;2067305;28;20224;-57
2021/11/24 04:18:25;;;;;;;60.80;34.00;;;;;;;;;;2066716;28;20178;-57
2021/11/24 04:19:26;;;;;;;58.15;35.05;;;;;;;;;;2064071;28;20585;-57
2021/11/24 04:20:26;;;;;;;60.00;34.97;;;;;;;;;;2062573;28;20170;-57
2021/11/24 04:21:27;;;;;;;61.80;35.35;;;;;;;;;;2066299;28;20181;-57
2021/11/24 04:22:27;;;;;;;63.53;36.17;;;;;;;;;;2065930;28;20201;-57
2021/11/24 04:23:27;;;;;;;59.03;34.60;;;;;;;;;;2065253;28;20263;-56
2021/11/24 04:24:28;;;;;;;57.90;33.80;;;;;;;;;;2065493;28;21024;-56
2021/11/24 04:25:28;;;;;;;61.50;36.70;;;;;;;;;;2065601;28;20186;-55
2021/11/24 04:26:28;;;;;;;59.88;35.35;;;;;;;;;;2065673;28;20657;-55
2021/11/24 04:27:29;;;;;;;57.38;35.05;;;;;;;;;;2065584;28;20238;-54
2021/11/24 04:28:29;;;;;;;58.97;34.38;;;;;;;;;;2062791;28;20174;-57
2021/11/24 04:29:29;;;;;;;61.50;35.80;;;;;;;;;;2060351;28;20193;-57
2021/11/24 04:30:29;;;;;;;60.20;34.63;;;;;;;;;;2062279;28;20333;-54
2021/11/24 04:31:30;;;;;;;61.97;33.78;;;;;;;;;;2063157;28;20174;-55
2021/11/24 04:32:30;;;;;;;55.83;33.00;;;;;;;;;;2065254;28;20170;-56
2021/11/24 04:33:30;;;;;;;53.13;32.90;;;;;;;;;;2065012;28;20185;-55
2021/11/24 04:34:31;;;;;;;52.00;31.65;;;;;;;;;;2064598;28;20623;-56
2021/11/24 04:35:31;;;;;;;57.90;33.67;;;;;;;;;;2065163;28;20177;-57
2021/11/24 04:36:31;;;;;;;63.17;34.80;;;;;;;;;;2066132;28;20190;-55
2021/11/24 04:37:32;;;;;;;55.30;33.28;;;;;;;;;;2065242;28;20169;-54
2021/11/24 04:38:32;;;;;;;59.35;33.65;;;;;;;;;;2062882;28;20188;-57
2021/11/24 04:39:32;;;;;;;56.40;33.88;;;;;;;;;;2060815;28;20188;-57
2021/11/24 04:40:33;;;;;;;50.00;31.33;;;;;;;;;;2065506;28;20618;-57
2021/11/24 04:41:33;;;;;;;52.33;32.75;;;;;;;;;;2065759;28;20181;-57
2021/11/24 04:42:34;;;;;;;54.05;33.78;;;;;;;;;;2065327;28;20268;-56
2021/11/24 04:43:42;;;;;;;56.08;31.77;;;;;;;;;;2065381;28;20209;-57
2021/11/24 04:44:43;;;;;;;58.10;31.83;;;;;;;;;;2064743;28;20561;-56
2021/11/24 04:45:43;;;;;;;51.00;31.88;;;;;;;;;;2062022;28;20188;-54
2021/11/24 04:46:43;;;;;;;50.97;32.15;;;;;;;;;;2064480;28;20194;-56
2021/11/24 04:47:44;;;;;;;55.53;31.13;;;;;;;;;;2064700;28;20181;-57
2021/11/24 04:48:45;;;;;;;48.05;32.13;;;;;;;;;;2065610;28;20189;-56
2021/11/24 04:49:45;;;;;;;46.13;29.13;;;;;;;;;;2065006;28;20170;-56
2021/11/24 04:50:45;;;;;;;48.22;30.92;;;;;;;;;;2072171;28;20286;-57
2021/11/24 04:51:46;;;;;;;49.30;28.85;;;;;;;;;;2071881;28;20308;-56
2021/11/24 04:52:47;;;;;;;49.42;29.70;;;;;;;;;;2065057;28;20661;-55
2021/11/24 04:53:47;;;;;;;46.47;28.85;;;;;;;;;;2064766;28;20197;-54
2021/11/24 04:54:48;;;;;;;46.40;28.95;;;;;;;;;;2059729;28;20671;-57
2021/11/24 04:55:48;;;;;;;47.50;26.87;;;;;;;;;;2062300;28;20693;-56
2021/11/24 04:56:49;;;;;;;40.88;26.70;;;;;;;;;;2064773;28;20228;-53
2021/11/24 04:57:49;;;;;;;44.72;27.33;;;;;;;;;;2065718;28;20676;-53
2021/11/24 04:58:53;;;;;;;43.70;25.85;;;;;;;;;;2065472;28;20688;-55
2021/11/24 04:59:53;;;;;;;38.67;25.80;;;;;;;;;;2059224;28;20568;-54
2021/11/24 05:00:54;;;;;;;39.90;25.38;;;;;;;;;;2058680;28;20254;-54
2021/11/24 05:01:54;;;;;;;39.33;25.13;;;;;;;;;;2065581;28;20637;-55
2021/11/24 05:02:55;;;;;;;38.67;25.83;;;;;;;;;;2065358;28;20185;-56
2021/11/24 05:03:55;;;;;;;41.30;25.95;;;;;;;;;;2064769;28;20209;-55
2021/11/24 05:04:55;;;;;;;41.45;26.70;;;;;;;;;;2065301;28;20170;-56
2021/11/24 05:05:56;;;;;;;42.53;26.77;;;;;;;;;;2065083;28;20197;-55
2021/11/24 05:06:56;;;;;;;41.20;25.50;;;;;;;;;;2071980;28;20611;-55
2021/11/24 05:07:57;;;;;;;37.45;25.02;;;;;;;;;;2066590;28;20598;-56
2021/11/24 05:08:57;;;;;;;43.30;27.15;;;;;;;;;;2071185;28;20200;-57
2021/11/24 05:09:57;;;;;;;39.77;25.23;;;;;;;;;;2064862;28;20169;-54
2021/11/24 05:10:58;;;;;;;38.27;25.87;;;;;;;;;;2058072;28;20198;-57
2021/11/24 05:11:59;;;;;;;35.63;21.92;;;;;;;;;;2063425;28;20197;-55
2021/11/24 05:12:59;;;;;;;37.60;23.42;;;;;;;;;;2063253;28;20173;-54
2021/11/24 05:14:02;;;;;;;35.43;23.83;;;;;;;;;;2062243;28;20217;-58
2021/11/24 05:15:04;;;;;;;37.85;24.17;;;;;;;;;;2062624;28;20177;-56
2021/11/24 05:16:06;;;;;;;35.40;23.60;;;;;;;;;;2063626;28;20752;-55
2021/11/24 05:17:09;;;;;;;33.85;22.38;;;;;;;;;;2063945;28;20572;-54
2021/11/24 05:18:18;;;;;;;36.87;24.13;;;;;;;;;;2072277;28;20251;-56
2021/11/24 05:19:20;;;;;;;40.67;23.73;;;;;;;;;;2071491;28;20169;-54
2021/11/24 05:20:24;;;;;;;40.38;24.58;;;;;;;;;;2064578;28;20558;-57
2021/11/24 05:22:31;;;;;;;38.47;26.27;;;;;;;;;;2065037;28;20256;-56
2021/11/24 05:23:36;;;;;;;42.90;25.23;;;;;;;;;;2063795;28;20216;-57
2021/11/24 05:24:37;;;;;;;35.33;23.33;;;;;;;;;;2060777;28;20185;-56
2021/11/24 05:25:37;;;;;;;41.38;25.92;;;;;;;;;;2055844;28;20170;-57
2021/11/24 05:26:38;;;;;;;40.22;25.40;;;;;;;;;;2064042;28;20166;-54
2021/11/24 05:27:38;;;;;;;38.53;23.98;;;;;;;;;;2071986;28;20572;-57
2021/11/24 05:28:38;;;;;;;41.00;24.52;;;;;;;;;;2064704;28;20178;-55
2021/11/24 05:29:39;;;;;;;39.05;26.20;;;;;;;;;;2065033;28;20624;-56
2021/11/24 05:30:39;;;;;;;38.37;25.70;;;;;;;;;;2064586;28;20174;-57
2021/11/24 05:31:40;;;;;;;38.05;25.20;;;;;;;;;;2064609;28;20170;-57
2021/11/24 05:32:40;;;;;;;38.10;22.67;;;;;;;;;;2064129;28;20221;-54
2021/11/24 05:33:43;;;;;;;39.63;21.98;;;;;;;;;;2063472;28;20240;-55
2021/11/24 05:34:43;;;;;;;37.72;23.60;;;;;;;;;;2064845;28;20253;-58
2021/11/24 05:35:43;;;;;;;37.85;23.65;;;;;;;;;;2065678;28;20673;-56
2021/11/24 05:36:44;;;;;;;36.72;23.50;;;;;;;;;;2065032;28;20220;-56
2021/11/24 05:37:44;;;;;;;31.17;19.35;;;;;;;;;;2064497;28;20607;-54
2021/11/24 05:38:46;;;;;;;33.38;22.05;;;;;;;;;;2064623;28;20235;-53
2021/11/24 05:39:46;;;;;;;36.67;23.92;;;;;;;;;;2064817;28;20189;-53
2021/11/24 05:40:47;;;;;;;36.22;23.75;;;;;;;;;;2064236;28;20173;-55
2021/11/24 05:41:47;;;;;;;36.55;24.05;;;;;;;;;;2064176;28;20189;-56
2021/11/24 05:42:51;;;;;;;36.47;23.58;;;;;;;;;;2059272;28;20210;-53
2021/11/24 05:43:56;;;;;;;34.75;22.63;;;;;;;;;;2062156;28;20201;-56
2021/11/24 05:45:10;;;;;;;37.08;23.55;;;;;;;;;;2064767;28;20189;-57
2021/11/24 05:47:49;;;;;;;42.53;25.80;;;;;;;;;;2065078;28;20669;-56
2021/11/24 05:48:33;;;;;;;37.33;23.42;;;;;;;;;;2065978;28;20170;-55
2021/11/24 05:49:34;;;;;;;37.75;25.05;;;;;;;;;;2067787;28;20189;-57
2021/11/24 05:50:35;;;;;;;41.67;26.90;;;;;;;;;;2065410;28;20689;-55
2021/11/24 05:51:36;;;;;;;39.30;24.67;;;;;;;;;;2066159;28;20165;-56
2021/11/24 05:52:36;;;;;;;42.65;25.70;;;;;;;;;;2061550;28;20201;-55
2021/11/24 05:53:37;;;;;;;39.47;25.80;;;;;;;;;;2061170;28;20265;-54
2021/11/24 05:54:37;;;;;;;39.13;27.00;;;;;;;;;;2063333;28;20174;-53
2021/11/24 05:55:37;;;;;;;40.88;24.60;;;;;;;;;;2060238;28;20759;-54